createdAt,value
2022-12-17T00:00:32.574Z,22.17
2022-12-17T00:03:18.303Z,22.30
2022-12-17T00:06:04.070Z,23.40
2022-12-17T00:08:49.970Z,24.07
2022-12-17T00:11:35.456Z,23.77
2022-12-17T00:14:20.923Z,22.73
2022-12-17T00:17:06.219Z,22.53
2022-12-17T00:19:51.664Z,20.07
2022-12-17T00:22:37.068Z,20.57
2022-12-17T00:25:22.290Z,20.17
2022-12-17T00:28:07.801Z,19.73
2022-12-17T00:30:53.103Z,18.37
2022-12-17T00:33:39.165Z,18.10
2022-12-17T00:36:25.058Z,20.07
2022-12-17T00:39:10.179Z,17.37
2022-12-17T00:41:55.381Z,19.40
2022-12-17T00:44:41.313Z,18.47
2022-12-17T00:47:26.867Z,18.50
2022-12-17T00:50:13.351Z,17.57
2022-12-17T00:53:04.341Z,18.93
2022-12-17T00:55:49.804Z,19.17
2022-12-17T00:58:35.259Z,19.60
2022-12-17T01:01:21.225Z,17.60
2022-12-17T01:04:06.592Z,19.63
2022-12-17T01:06:52.801Z,18.27
2022-12-17T01:09:56.118Z,17.57
2022-12-17T01:12:41.547Z,17.20
2022-12-17T01:15:27.230Z,17.73
2022-12-17T01:18:12.384Z,17.43
2022-12-17T01:20:57.810Z,18.53
2022-12-17T01:23:42.927Z,16.37
2022-12-17T01:26:28.336Z,18.10
2022-12-17T01:29:15.975Z,18.10
2022-12-17T01:32:01.501Z,18.10
2022-12-17T01:34:46.787Z,17.83
2022-12-17T01:37:31.938Z,18.27
2022-12-17T01:40:17.221Z,18.97
2022-12-17T01:43:05.075Z,18.67
2022-12-17T01:46:00.757Z,19.03
2022-12-17T01:48:52.315Z,18.07
2022-12-17T01:51:38.151Z,17.93
2022-12-17T01:54:23.844Z,17.83
2022-12-17T01:57:09.596Z,19.90
2022-12-17T02:00:08.604Z,18.60
2022-12-17T02:03:00.561Z,19.00
2022-12-17T02:06:28.060Z,20.00
2022-12-17T02:09:26.503Z,19.37
2022-12-17T02:12:33.988Z,18.27
2022-12-17T02:15:29.150Z,17.93
2022-12-17T02:18:20.963Z,19.53
2022-12-17T02:21:09.005Z,20.73
2022-12-17T02:24:02.528Z,20.53
2022-12-17T02:27:01.913Z,20.73
2022-12-17T02:29:52.480Z,20.23
2022-12-17T02:32:39.055Z,19.53
2022-12-17T02:35:50.114Z,18.90
2022-12-17T02:38:43.690Z,19.80
2022-12-17T02:41:35.096Z,18.70
2022-12-17T02:44:22.856Z,19.63
2022-12-17T02:47:10.822Z,20.80
2022-12-17T02:49:56.121Z,22.03
2022-12-17T02:52:43.024Z,22.70
2022-12-17T02:55:28.375Z,22.07
2022-12-17T02:58:14.415Z,22.33
2022-12-17T03:00:59.720Z,20.17
2022-12-17T03:03:50.082Z,21.27
2022-12-17T03:06:35.640Z,20.53
2022-12-17T03:09:20.879Z,19.63
2022-12-17T03:12:06.312Z,21.47
2022-12-17T03:14:51.619Z,19.43
2022-12-17T03:17:37.170Z,19.57
2022-12-17T03:20:22.534Z,21.97
2022-12-17T03:23:07.966Z,20.07
2022-12-17T03:25:53.134Z,19.67
2022-12-17T03:28:38.601Z,19.20
2022-12-17T03:31:24.065Z,20.50
2022-12-17T03:34:09.262Z,20.17
2022-12-17T03:36:54.752Z,19.33
2022-12-17T03:39:40.191Z,20.97
2022-12-17T03:42:25.537Z,20.17
2022-12-17T03:45:10.984Z,20.37
2022-12-17T03:47:56.343Z,21.17
2022-12-17T03:50:41.826Z,22.60
2022-12-17T03:53:27.246Z,21.10
2022-12-17T03:56:12.784Z,19.93
2022-12-17T03:58:58.194Z,21.87
2022-12-17T04:01:43.831Z,21.03
2022-12-17T04:04:29.281Z,21.43
2022-12-17T04:07:14.680Z,22.43
2022-12-17T04:10:00.301Z,21.93
2022-12-17T04:12:45.810Z,23.33
2022-12-17T04:15:31.310Z,21.80
2022-12-17T04:18:16.760Z,23.10
2022-12-17T04:21:02.144Z,22.40
2022-12-17T04:23:47.421Z,21.30
2022-12-17T04:26:32.493Z,21.43
2022-12-17T04:29:17.955Z,21.83
2022-12-17T04:32:03.534Z,22.53
2022-12-17T04:34:48.895Z,22.30
2022-12-17T04:37:34.288Z,22.60
2022-12-17T04:40:19.605Z,20.50
2022-12-17T04:43:04.994Z,22.07
2022-12-17T04:45:50.469Z,21.67
2022-12-17T04:48:35.588Z,23.33
2022-12-17T04:51:21.171Z,22.80
2022-12-17T04:54:06.478Z,24.67
2022-12-17T04:56:52.111Z,24.23
2022-12-17T04:59:37.409Z,23.73
2022-12-17T05:02:22.988Z,24.37
2022-12-17T05:05:08.296Z,25.10
2022-12-17T05:07:53.660Z,26.90
2022-12-17T05:10:39.100Z,23.47
2022-12-17T05:13:24.100Z,23.90
2022-12-17T05:16:14.469Z,23.33
2022-12-17T05:18:59.861Z,22.60
2022-12-17T05:21:45.254Z,23.07
2022-12-17T05:24:30.663Z,22.97
2022-12-17T05:27:16.040Z,22.50
2022-12-17T05:30:01.423Z,22.13
2022-12-17T05:32:46.965Z,21.77
2022-12-17T05:35:32.331Z,22.10
2022-12-17T05:38:25.313Z,23.40
2022-12-17T05:41:11.213Z,23.00
2022-12-17T05:43:56.672Z,23.90
2022-12-17T05:46:42.111Z,22.13
2022-12-17T05:49:27.440Z,20.67
2022-12-17T05:52:12.715Z,21.67
2022-12-17T05:54:58.215Z,20.77
2022-12-17T05:57:43.777Z,20.73
2022-12-17T06:00:29.770Z,21.27
2022-12-17T06:03:19.714Z,20.37
2022-12-17T06:06:05.645Z,20.43
2022-12-17T06:08:50.816Z,19.50
2022-12-17T06:12:02.270Z,20.80
2022-12-17T06:14:47.823Z,20.80
2022-12-17T06:17:33.106Z,17.97
2022-12-17T06:20:18.762Z,20.60
2022-12-17T06:23:04.023Z,19.57
2022-12-17T06:25:49.421Z,19.37
2022-12-17T06:28:34.794Z,21.53
2022-12-17T06:31:20.348Z,16.97
2022-12-17T06:34:05.548Z,19.00
2022-12-17T06:36:50.955Z,17.53
2022-12-17T06:39:36.041Z,20.13
2022-12-17T06:42:21.667Z,18.93
2022-12-17T06:45:07.092Z,18.53
2022-12-17T06:47:52.525Z,18.77
2022-12-17T06:50:38.022Z,19.07
2022-12-17T06:53:25.968Z,18.33
2022-12-17T06:56:11.512Z,18.97
2022-12-17T06:58:57.063Z,21.37
2022-12-17T07:01:42.644Z,19.27
2022-12-17T07:04:28.014Z,19.87
2022-12-17T07:07:13.342Z,19.67
2022-12-17T07:09:59.431Z,20.40
2022-12-17T07:12:45.059Z,18.70
2022-12-17T07:15:31.258Z,19.00
2022-12-17T07:18:18.884Z,17.83
2022-12-17T07:21:05.121Z,20.57
2022-12-17T07:23:50.709Z,19.83
2022-12-17T07:26:36.489Z,17.80
2022-12-17T07:29:22.077Z,19.00
2022-12-17T07:32:07.548Z,17.87
2022-12-17T07:34:53.012Z,18.57
2022-12-17T07:37:38.443Z,18.13
2022-12-17T07:40:24.519Z,17.10
2022-12-17T07:43:09.902Z,18.23
2022-12-17T07:45:55.365Z,17.27
2022-12-17T07:48:40.702Z,17.70
2022-12-17T07:51:26.070Z,16.90
2022-12-17T07:54:11.626Z,17.13
2022-12-17T07:56:57.040Z,18.17
2022-12-17T07:59:42.706Z,16.77
2022-12-17T08:02:29.560Z,17.90
2022-12-17T08:05:15.207Z,17.63
2022-12-17T08:08:00.491Z,16.90
2022-12-17T08:10:45.955Z,18.13
2022-12-17T08:13:31.292Z,17.60
2022-12-17T08:16:16.825Z,16.77
2022-12-17T08:19:02.120Z,17.10
2022-12-17T08:21:47.447Z,16.03
2022-12-17T08:24:32.922Z,16.33
2022-12-17T08:27:18.415Z,17.03
2022-12-17T08:30:03.483Z,14.93
2022-12-17T08:32:48.762Z,16.37
2022-12-17T08:35:34.180Z,17.67
2022-12-17T08:38:23.715Z,15.67
2022-12-17T08:41:09.204Z,17.63
2022-12-17T08:43:54.783Z,16.67
2022-12-17T08:46:40.293Z,16.80
2022-12-17T08:49:25.457Z,18.37
2022-12-17T08:52:10.942Z,17.80
2022-12-17T08:54:56.363Z,18.30
2022-12-17T08:57:41.647Z,17.87
2022-12-17T09:00:28.082Z,16.13
2022-12-17T09:03:20.858Z,17.03
2022-12-17T09:06:06.851Z,18.43
2022-12-17T09:08:52.361Z,17.70
2022-12-17T09:11:37.750Z,15.73
2022-12-17T09:14:23.443Z,20.80
2022-12-17T09:17:08.891Z,17.57
2022-12-17T09:19:54.391Z,16.10
2022-12-17T09:22:39.817Z,16.30
2022-12-17T09:25:25.097Z,17.10
2022-12-17T09:28:10.555Z,16.33
2022-12-17T09:30:56.020Z,16.63
2022-12-17T09:33:41.226Z,17.43
2022-12-17T09:36:27.357Z,17.50
2022-12-17T09:39:12.599Z,17.87
2022-12-17T09:42:17.499Z,18.17
2022-12-17T09:45:22.309Z,14.20
2022-12-17T09:48:34.898Z,16.60
2022-12-17T09:51:20.533Z,17.87
2022-12-17T09:54:10.067Z,16.63
2022-12-17T09:56:57.384Z,16.93
2022-12-17T09:59:53.182Z,19.20
2022-12-17T10:02:43.334Z,17.27
2022-12-17T10:05:37.323Z,17.07
2022-12-17T10:08:24.808Z,17.33
2022-12-17T10:11:11.209Z,18.27
2022-12-17T10:13:56.678Z,18.13
2022-12-17T10:16:46.220Z,17.73
2022-12-17T10:19:43.888Z,18.10
2022-12-17T10:22:32.160Z,15.37
2022-12-17T10:25:41.114Z,17.03
2022-12-17T10:28:31.991Z,16.37
2022-12-17T10:31:17.886Z,17.47
2022-12-17T10:34:04.515Z,17.90
2022-12-17T10:36:49.992Z,18.40
2022-12-17T10:39:44.897Z,18.80
2022-12-17T10:42:48.337Z,17.57
2022-12-17T10:45:47.014Z,18.07
2022-12-17T10:48:50.106Z,19.00
2022-12-17T10:51:38.182Z,17.83
2022-12-17T10:54:46.982Z,19.17
2022-12-17T10:57:51.852Z,15.47
2022-12-17T11:00:45.699Z,14.67
2022-12-17T11:03:49.911Z,16.63
2022-12-17T11:06:43.644Z,17.27
2022-12-17T11:09:41.914Z,14.70
2022-12-17T11:12:31.168Z,15.70
2022-12-17T11:15:22.831Z,15.70
2022-12-17T11:18:11.586Z,16.17
2022-12-17T11:21:13.694Z,18.70
2022-12-17T11:24:02.867Z,18.43
2022-12-17T11:26:53.961Z,17.80
2022-12-17T11:29:39.028Z,17.20
2022-12-17T11:32:55.846Z,17.47
2022-12-17T11:35:49.160Z,19.30
2022-12-17T11:38:58.229Z,17.40
2022-12-17T11:41:53.268Z,17.60
2022-12-17T11:44:50.558Z,14.90
2022-12-17T11:48:04.819Z,16.60
2022-12-17T11:51:06.167Z,16.63
2022-12-17T11:53:57.093Z,16.70
2022-12-17T11:56:55.049Z,16.70
2022-12-17T11:59:53.437Z,15.87
2022-12-17T12:03:07.631Z,16.97
2022-12-17T12:06:19.828Z,16.77
2022-12-17T12:09:30.782Z,16.27
2022-12-17T12:12:44.229Z,16.77
2022-12-17T12:15:47.623Z,17.00
2022-12-17T12:18:42.488Z,17.60
2022-12-17T12:21:45.901Z,17.53
2022-12-17T12:24:49.974Z,17.57
2022-12-17T12:28:08.700Z,16.73
2022-12-17T12:31:05.213Z,17.73
2022-12-17T12:34:09.092Z,16.47
2022-12-17T12:36:56.159Z,17.07
2022-12-17T12:39:51.495Z,16.37
2022-12-17T12:43:05.645Z,17.67
2022-12-17T12:46:04.959Z,17.13
2022-12-17T12:49:16.122Z,16.27
2022-12-17T12:52:01.668Z,15.77
2022-12-17T12:55:09.433Z,15.03
2022-12-17T12:58:16.033Z,15.90
2022-12-17T13:01:06.930Z,14.40
2022-12-17T13:04:01.247Z,15.00
2022-12-17T13:06:55.241Z,14.50
2022-12-17T13:09:33.913Z,15.07
2022-12-17T13:12:04.377Z,15.77
2022-12-17T13:14:49.983Z,15.07
2022-12-17T13:17:16.667Z,14.37
2022-12-17T13:19:56.861Z,14.53
2022-12-17T13:22:24.400Z,15.40
2022-12-17T13:24:54.066Z,15.63
2022-12-17T13:27:35.981Z,16.00
2022-12-17T13:30:17.633Z,15.00
2022-12-17T13:33:07.946Z,16.30
2022-12-17T13:35:44.715Z,15.50
2022-12-17T13:38:46.676Z,18.37
2022-12-17T13:41:21.595Z,18.17
2022-12-17T13:43:49.797Z,17.27
2022-12-17T13:46:23.765Z,19.83
2022-12-17T13:48:56.340Z,19.27
2022-12-17T13:51:23.841Z,18.30
2022-12-17T13:53:56.068Z,18.90
2022-12-17T13:56:30.523Z,18.50
2022-12-17T13:59:03.169Z,18.67
2022-12-17T14:01:33.190Z,19.77
2022-12-17T14:04:06.645Z,18.60
2022-12-17T14:06:37.560Z,18.50
2022-12-17T14:09:05.264Z,18.20
2022-12-17T14:11:51.643Z,18.63
2022-12-17T14:14:31.514Z,19.67
2022-12-17T14:16:58.777Z,18.30
2022-12-17T14:19:27.028Z,18.53
2022-12-17T14:21:55.110Z,19.47
2022-12-17T14:24:27.079Z,18.77
2022-12-17T14:27:00.036Z,16.40
2022-12-17T14:29:29.514Z,18.47
2022-12-17T14:31:57.873Z,17.33
2022-12-17T14:34:24.886Z,16.93
2022-12-17T14:37:00.093Z,18.20
2022-12-17T14:39:29.837Z,18.17
2022-12-17T14:42:25.762Z,16.23
2022-12-17T14:45:06.754Z,17.57
2022-12-17T14:47:35.358Z,17.23
2022-12-17T14:50:04.443Z,18.87
2022-12-17T14:52:39.100Z,23.90
2022-12-17T14:55:24.587Z,31.07
2022-12-17T14:57:53.297Z,21.40
2022-12-17T15:00:20.990Z,29.20
2022-12-17T15:02:54.266Z,18.67
2022-12-17T15:05:21.169Z,17.70
2022-12-17T15:10:42.994Z,17.80
2022-12-17T15:13:09.603Z,16.50
2022-12-17T15:15:36.240Z,18.63
2022-12-17T15:18:02.913Z,15.93
2022-12-17T15:20:29.647Z,17.53
2022-12-17T15:22:56.447Z,17.43
2022-12-17T15:25:23.100Z,17.07
2022-12-17T15:27:49.814Z,17.93
2022-12-17T15:30:17.905Z,18.73
2022-12-17T15:32:45.415Z,19.63
2022-12-17T15:35:13.148Z,19.60
2022-12-17T15:37:40.163Z,19.93
2022-12-17T15:40:07.922Z,18.77
2022-12-17T15:42:53.084Z,18.50
2022-12-17T15:45:19.711Z,17.77
2022-12-17T15:47:46.428Z,18.07
2022-12-17T15:50:13.038Z,18.40
2022-12-17T15:52:39.657Z,16.93
2022-12-17T15:55:06.671Z,16.63
2022-12-17T15:57:33.313Z,16.70
2022-12-17T15:59:59.905Z,16.63
2022-12-17T16:02:26.698Z,15.77
2022-12-17T16:04:53.526Z,15.03
2022-12-17T16:07:20.157Z,15.23
2022-12-17T16:09:46.778Z,15.20
2022-12-17T16:12:13.427Z,15.33
2022-12-17T16:14:40.054Z,15.20
2022-12-17T16:17:06.693Z,15.63
2022-12-17T16:19:34.163Z,15.83
2022-12-17T16:22:00.848Z,17.10
2022-12-17T16:24:27.538Z,16.27
2022-12-17T16:26:56.219Z,16.37
2022-12-17T16:29:24.915Z,16.17
2022-12-17T16:31:51.565Z,16.57
2022-12-17T16:34:18.284Z,17.93
2022-12-17T16:36:44.935Z,15.13
2022-12-17T16:39:18.967Z,16.10
2022-12-17T16:41:46.212Z,15.73
2022-12-17T16:44:13.247Z,15.83
2022-12-17T16:46:42.110Z,15.43
2022-12-17T16:49:12.158Z,17.80
2022-12-17T16:51:39.543Z,18.17
2022-12-17T16:54:13.563Z,17.27
2022-12-17T16:56:40.961Z,17.80
2022-12-17T16:59:08.304Z,17.77
2022-12-17T17:01:36.180Z,17.00
2022-12-17T17:04:04.930Z,18.30
2022-12-17T17:06:33.867Z,15.77
2022-12-17T17:09:04.089Z,15.63
2022-12-17T17:11:30.863Z,17.20
2022-12-17T17:13:57.567Z,17.27
2022-12-17T17:16:25.483Z,16.20
2022-12-17T17:18:53.029Z,16.27
2022-12-17T17:21:19.610Z,18.17
2022-12-17T17:23:55.910Z,16.87
2022-12-17T17:26:24.613Z,17.30
2022-12-17T17:28:51.790Z,17.70
2022-12-17T17:31:19.079Z,18.43
2022-12-17T17:33:48.527Z,28.67
2022-12-17T17:36:27.196Z,30.20
2022-12-17T17:38:57.240Z,21.30
2022-12-17T17:41:26.381Z,17.60
2022-12-17T17:44:03.441Z,20.37
2022-12-17T17:46:30.904Z,17.13
2022-12-17T17:49:00.384Z,20.17
2022-12-17T17:52:00.334Z,17.37
2022-12-17T17:54:17.119Z,17.20
2022-12-17T17:56:43.831Z,17.30
2022-12-17T17:59:12.958Z,18.17
2022-12-17T18:01:45.582Z,16.93
2022-12-17T18:04:15.144Z,17.17
2022-12-17T18:07:02.682Z,17.77
2022-12-17T18:09:29.952Z,17.07
2022-12-17T18:11:56.681Z,20.80
2022-12-17T18:14:23.287Z,19.00
2022-12-17T18:16:49.924Z,18.70
2022-12-17T18:19:21.725Z,17.57
2022-12-17T18:21:49.112Z,18.27
2022-12-17T18:24:19.400Z,20.00
2022-12-17T18:26:47.810Z,18.27
2022-12-17T18:29:19.006Z,18.00
2022-12-17T18:31:51.343Z,18.73
2022-12-17T18:34:21.183Z,19.67
2022-12-17T18:36:49.606Z,20.70
2022-12-17T18:39:21.676Z,18.20
2022-12-17T18:42:08.340Z,19.20
2022-12-17T18:44:38.243Z,16.60
2022-12-17T18:47:05.117Z,17.90
2022-12-17T18:49:31.812Z,17.40
2022-12-17T18:51:58.457Z,18.43
2022-12-17T18:54:27.836Z,16.03
2022-12-17T18:57:01.582Z,16.73
2022-12-17T18:59:30.497Z,18.03
2022-12-17T19:01:58.363Z,18.83
2022-12-17T19:04:25.866Z,18.83
2022-12-17T19:06:53.490Z,17.60
2022-12-17T19:09:25.911Z,19.63
2022-12-17T19:11:53.513Z,17.60
2022-12-17T19:14:22.328Z,18.63
2022-12-17T19:16:50.132Z,18.13
2022-12-17T19:19:19.390Z,16.63
2022-12-17T19:21:46.615Z,17.67
2022-12-17T19:24:15.646Z,16.33
2022-12-17T19:26:43.063Z,15.97
2022-12-17T19:29:12.247Z,15.90
2022-12-17T19:31:39.382Z,16.90
2022-12-17T19:34:09.380Z,15.80
2022-12-17T19:36:37.400Z,18.43
2022-12-17T19:39:07.158Z,18.77
2022-12-17T19:41:34.757Z,18.03
2022-12-17T19:44:06.906Z,18.27
2022-12-17T19:46:35.351Z,18.03
2022-12-17T19:49:02.837Z,16.73
2022-12-17T19:51:31.093Z,18.20
2022-12-17T19:54:01.828Z,18.60
2022-12-17T19:56:33.702Z,17.90
2022-12-17T19:59:04.737Z,18.77
2022-12-17T20:01:33.749Z,20.00
2022-12-17T20:04:00.858Z,18.17
2022-12-17T20:06:30.469Z,19.27
2022-12-17T20:09:01.133Z,19.17
2022-12-17T20:11:33.752Z,18.17
2022-12-17T20:14:20.717Z,19.87
2022-12-17T20:16:59.700Z,16.47
2022-12-17T20:19:31.076Z,16.87
2022-12-17T20:22:02.765Z,17.47
2022-12-17T20:24:31.995Z,16.50
2022-12-17T20:26:59.801Z,16.77
2022-12-17T20:29:27.238Z,17.13
2022-12-17T20:31:54.517Z,16.43
2022-12-17T20:34:21.446Z,17.20
2022-12-17T20:36:48.389Z,16.33
2022-12-17T20:39:15.057Z,17.63
2022-12-17T20:41:42.013Z,19.37
2022-12-17T20:44:13.256Z,18.10
2022-12-17T20:46:41.133Z,18.57
2022-12-17T20:49:08.327Z,19.43
2022-12-17T20:51:35.316Z,18.80
2022-12-17T20:54:02.985Z,18.83
2022-12-17T20:56:32.548Z,18.27
2022-12-17T20:59:02.541Z,19.63
2022-12-17T21:01:31.527Z,20.67
2022-12-17T21:03:59.667Z,18.93
2022-12-17T21:06:34.299Z,18.90
2022-12-17T21:09:01.519Z,17.90
2022-12-17T21:11:30.703Z,17.67
2022-12-17T21:13:57.587Z,18.00
2022-12-17T21:16:28.171Z,16.50
2022-12-17T21:18:55.853Z,18.90
2022-12-17T21:21:26.003Z,15.40
2022-12-17T21:23:52.746Z,17.13
2022-12-17T21:26:33.384Z,21.63
2022-12-17T21:29:01.389Z,16.93
2022-12-17T21:31:43.844Z,17.40
2022-12-17T21:34:13.150Z,16.47
2022-12-17T21:36:40.245Z,18.80
2022-12-17T21:39:09.536Z,17.13
2022-12-17T21:41:39.192Z,16.40
2022-12-17T21:44:11.619Z,17.07
2022-12-17T21:46:39.062Z,17.13
2022-12-17T21:49:05.805Z,16.70
2022-12-17T21:51:32.816Z,17.20
2022-12-17T21:54:02.654Z,16.80
2022-12-17T21:56:35.149Z,17.87
2022-12-17T21:59:01.829Z,18.33
2022-12-17T22:01:32.454Z,19.40
2022-12-17T22:04:01.948Z,20.20
2022-12-17T22:06:33.358Z,20.70
2022-12-17T22:09:03.533Z,18.13
2022-12-17T22:11:42.095Z,18.27
2022-12-17T22:14:15.551Z,19.17
2022-12-17T22:16:48.868Z,16.60
2022-12-17T22:19:23.366Z,16.97
2022-12-17T22:21:55.418Z,19.40
2022-12-17T22:24:24.846Z,17.93
2022-12-17T22:26:52.103Z,17.60
2022-12-17T22:29:37.333Z,16.17
2022-12-17T22:32:23.140Z,15.50
2022-12-17T22:35:23.600Z,17.87
2022-12-17T22:41:23.685Z,18.30
2022-12-17T22:44:30.802Z,17.80
2022-12-17T22:44:51.760Z,17.80
2022-12-17T22:46:16.838Z,18.57
2022-12-17T22:48:43.563Z,19.63
2022-12-17T22:51:13.557Z,17.13
2022-12-17T22:53:47.634Z,17.50
2022-12-17T22:56:28.412Z,18.17
2022-12-17T22:59:01.960Z,17.67
2022-12-17T23:01:29.222Z,19.87
2022-12-17T23:03:58.044Z,19.37
2022-12-17T23:06:25.535Z,19.93
2022-12-17T23:08:53.058Z,18.97
2022-12-17T23:11:25.023Z,19.27
2022-12-17T23:13:53.129Z,18.67
2022-12-17T23:16:19.806Z,18.17
2022-12-17T23:18:48.018Z,17.53
2022-12-17T23:21:20.055Z,19.57
2022-12-17T23:23:46.974Z,18.10
2022-12-17T23:26:20.922Z,16.57
2022-12-17T23:28:48.347Z,21.13
2022-12-17T23:31:18.543Z,20.53
2022-12-17T23:33:45.899Z,20.20
2022-12-17T23:36:19.385Z,17.83
2022-12-17T23:38:47.289Z,19.20
2022-12-17T23:41:17.326Z,16.37
2022-12-17T23:43:45.019Z,16.93
2022-12-17T23:46:12.518Z,16.90
2022-12-17T23:48:45.326Z,17.43
2022-12-17T23:51:14.198Z,17.23
2022-12-17T23:53:43.256Z,16.63
2022-12-17T23:56:13.357Z,15.20
2022-12-17T23:58:42.402Z,15.57
